Time;durP1;ratioP1;P1;durP2;ratioP2;P2;SDS_P1;SDS_P2;PMS_P1;PMS_P2;Temp;Humidity;BMP_temperature;BMP_pressure;BME280_temperature;BME280_humidity;BME280_pressure;Samples;Min_cycle;Max_cycle;Signal;HPM_P1;HPM_P2
2020/12/21 09:40:30;;;;;;;7.97;2.10;;;9.20;99.90;;;;;;3938427;23;20549;-78
2020/12/21 17:18:29;;;;;;;4.77;4.47;;;10.60;99.90;;;;;;775858;23;20502;31
2020/12/21 18:08:42;;;;;;;7.20;6.70;;;11.20;99.90;;;;;;4919623;29;20226;-90
2020/12/21 18:11:09;;;;;;;8.70;8.00;;;11.20;99.90;;;;;;4912718;29;20211;-90
2020/12/21 18:13:35;;;;;;;8.03;7.27;;;11.20;99.90;;;;;;4920558;29;20203;-89
2020/12/21 18:16:02;;;;;;;7.67;6.97;;;11.20;99.90;;;;;;4920097;29;20203;-89
2020/12/21 18:18:28;;;;;;;7.60;7.10;;;11.20;99.90;;;;;;4920892;29;20204;-89
2020/12/21 18:24:01;;;;;;;8.30;7.70;;;11.20;99.90;;;;;;4974859;23;20321;-86
2020/12/21 18:26:27;;;;;;;8.80;8.03;;;11.20;99.90;;;;;;4958782;29;20252;-89
2020/12/21 18:28:53;;;;;;;9.20;8.50;;;11.30;99.90;;;;;;4958123;29;20210;-89
2020/12/21 18:31:21;;;;;;;9.33;8.53;;;11.40;99.90;;;;;;4958457;29;20209;-89
2020/12/21 18:33:47;;;;;;;10.20;9.37;;;11.40;99.90;;;;;;4958192;29;20213;-89
2020/12/21 18:36:14;;;;;;;9.93;9.17;;;11.40;99.90;;;;;;4958482;29;20268;-89
2020/12/21 18:38:40;;;;;;;11.32;10.43;;;11.50;99.90;;;;;;4958012;29;20441;-90
2020/12/21 18:41:08;;;;;;;11.03;10.13;;;11.50;99.90;;;;;;4958154;29;20609;-89
2020/12/21 18:43:34;;;;;;;12.03;10.90;;;11.50;99.90;;;;;;4940614;29;20349;-89
2020/12/21 18:46:00;;;;;;;11.63;10.70;;;11.50;99.90;;;;;;4957793;29;20214;-89
2020/12/21 18:48:29;;;;;;;11.60;10.53;;;11.50;99.90;;;;;;4958051;29;20206;-90
2020/12/21 18:50:56;;;;;;;10.70;9.83;;;11.60;99.90;;;;;;4958003;29;20225;-90
2020/12/21 18:53:22;;;;;;;11.37;10.47;;;11.60;99.90;;;;;;4958344;29;20216;-90
2020/12/21 18:55:48;;;;;;;12.07;10.77;;;11.70;99.90;;;;;;4957837;29;20214;-90
2020/12/21 18:58:18;;;;;;;12.10;11.00;;;11.70;99.90;;;;;;4957292;28;20198;-89
2020/12/21 19:00:44;;;;;;;12.57;11.40;;;11.70;99.90;;;;;;4957298;29;20253;-90
2020/12/21 19:03:11;;;;;;;11.47;10.47;;;11.70;99.90;;;;;;4957917;29;20205;-90
2020/12/21 19:05:37;;;;;;;11.77;10.83;;;11.70;99.90;;;;;;4957612;29;20237;-90
2020/12/21 19:08:03;;;;;;;11.60;10.47;;;11.70;99.90;;;;;;4959241;29;20237;-90
2020/12/21 19:10:30;;;;;;;14.70;13.63;;;11.80;99.90;;;;;;4959358;29;20441;-90
2020/12/21 19:12:56;;;;;;;14.07;12.70;;;11.90;99.90;;;;;;4961709;29;20208;-90
2020/12/21 19:15:23;;;;;;;12.03;11.03;;;12.00;99.90;;;;;;4962111;29;20232;-91
2020/12/21 19:17:49;;;;;;;11.53;10.63;;;12.00;99.90;;;;;;4960467;29;20242;-90
2020/12/21 19:20:16;;;;;;;11.83;10.83;;;12.00;99.90;;;;;;4961679;29;20237;-90
2020/12/21 19:22:42;;;;;;;12.60;11.60;;;12.00;99.90;;;;;;4959553;29;20754;-90
2020/12/21 19:25:10;;;;;;;12.73;11.40;;;12.00;99.90;;;;;;4959356;29;20235;-90
2020/12/21 19:27:36;;;;;;;12.50;11.50;;;12.10;99.90;;;;;;4958872;29;20221;-91
2020/12/21 19:30:05;;;;;;;12.80;11.70;;;12.10;99.90;;;;;;4957626;29;20215;-90
2020/12/21 19:32:32;;;;;;;11.83;10.83;;;12.10;99.90;;;;;;4958133;29;20307;-90
2020/12/21 19:34:58;;;;;;;11.67;10.77;;;12.10;99.90;;;;;;4957529;29;20717;-89
2020/12/21 19:37:25;;;;;;;13.37;11.97;;;12.20;99.90;;;;;;4957965;29;20226;-90
2020/12/21 19:39:51;;;;;;;12.80;11.57;;;12.20;99.90;;;;;;4957743;29;20213;-90
2020/12/21 19:42:18;;;;;;;12.77;11.57;;;12.20;99.90;;;;;;4957354;29;20265;-90
2020/12/21 19:44:44;;;;;;;13.00;11.90;;;12.20;99.90;;;;;;4957141;29;20341;-89
2020/12/21 19:47:11;;;;;;;12.87;11.77;;;12.30;99.90;;;;;;4957129;29;20235;-90
2020/12/21 19:49:39;;;;;;;11.47;10.67;;;12.30;99.90;;;;;;4957538;29;20207;-89
2020/12/21 19:52:05;;;;;;;11.80;10.80;;;12.50;99.90;;;;;;4957295;29;20628;-91
2020/12/21 19:54:31;;;;;;;12.57;11.57;;;12.60;99.90;;;;;;4956901;29;20222;-90
2020/12/21 19:56:58;;;;;;;12.13;11.03;;;12.60;99.90;;;;;;4957158;29;20297;-90
2020/12/21 19:59:25;;;;;;;12.80;11.80;;;12.60;99.90;;;;;;4957307;29;20204;-91
2020/12/21 20:01:51;;;;;;;13.00;11.80;;;12.60;99.90;;;;;;4956315;29;20223;-90
2020/12/21 20:04:17;;;;;;;12.10;11.10;;;12.70;99.90;;;;;;4956161;29;20661;-90
2020/12/21 20:06:44;;;;;;;13.07;11.87;;;12.80;99.90;;;;;;4957362;29;20707;-91
2020/12/21 20:09:11;;;;;;;13.10;12.00;;;12.80;99.90;;;;;;4955950;28;20203;-89
2020/12/21 20:11:37;;;;;;;12.83;11.73;;;12.80;99.90;;;;;;4956687;29;20211;-90
2020/12/21 20:14:04;;;;;;;11.87;11.03;;;12.80;99.90;;;;;;4957103;29;20211;-91
2020/12/21 20:16:31;;;;;;;12.53;11.27;;;12.80;99.90;;;;;;4955871;29;20687;-90
2020/12/21 20:18:58;;;;;;;12.67;11.57;;;12.90;99.90;;;;;;4956583;29;20208;-89
2020/12/21 20:21:24;;;;;;;12.10;11.20;;;12.90;99.90;;;;;;4956432;29;20219;-90
2020/12/21 20:23:52;;;;;;;12.27;11.37;;;12.90;99.90;;;;;;4956002;29;20243;-89
2020/12/21 20:26:19;;;;;;;11.67;10.77;;;13.00;99.90;;;;;;4956430;29;20237;-90
2020/12/21 20:28:45;;;;;;;12.33;11.33;;;13.00;99.90;;;;;;4956536;29;20212;-90
2020/12/21 20:31:12;;;;;;;11.97;10.97;;;13.10;99.90;;;;;;4955842;29;20543;-90
2020/12/21 20:33:38;;;;;;;12.10;11.20;;;13.20;99.90;;;;;;4956831;29;20223;-90
2020/12/21 20:36:05;;;;;;;12.67;11.60;;;13.20;99.90;;;;;;4956171;29;20673;-89
2020/12/21 20:38:31;;;;;;;13.40;12.10;;;13.20;99.90;;;;;;4956461;29;20216;-89
2020/12/21 20:40:59;;;;;;;12.57;11.47;;;13.30;99.90;;;;;;4955993;29;20673;-89
2020/12/21 20:43:25;;;;;;;12.60;11.70;;;13.30;99.90;;;;;;4956568;29;20220;-89
2020/12/21 20:45:52;;;;;;;12.43;11.43;;;13.30;99.90;;;;;;4955746;29;20240;-89
2020/12/21 20:48:18;;;;;;;13.27;12.13;;;13.40;99.90;;;;;;4955995;29;20713;-90
2020/12/21 20:50:45;;;;;;;13.13;12.03;;;13.40;99.90;;;;;;4955990;29;20263;-89
2020/12/21 20:53:11;;;;;;;12.67;11.57;;;13.40;99.90;;;;;;4956512;29;20223;-89
2020/12/21 20:55:38;;;;;;;12.00;10.97;;;13.40;99.90;;;;;;4956765;29;20213;-90
2020/12/21 20:58:05;;;;;;;12.30;11.27;;;13.50;99.90;;;;;;4956099;29;20236;-89
2020/12/21 21:00:32;;;;;;;11.27;10.47;;;13.50;99.90;;;;;;4955794;29;20263;-90
2020/12/21 21:02:58;;;;;;;12.23;11.33;;;13.50;99.90;;;;;;4955880;29;20207;-90
2020/12/21 21:05:24;;;;;;;12.00;11.20;;;13.50;99.90;;;;;;4955931;29;20231;-89
2020/12/21 21:07:51;;;;;;;11.17;10.37;;;13.50;99.90;;;;;;4955599;29;20256;-89
2020/12/21 21:10:17;;;;;;;12.07;11.27;;;13.50;99.90;;;;;;4956001;29;20233;-90
2020/12/21 21:12:44;;;;;;;11.30;10.40;;;13.50;99.90;;;;;;4955667;29;20289;-89
2020/12/21 21:15:11;;;;;;;11.57;10.67;;;13.40;99.90;;;;;;4955494;29;20296;-89
2020/12/21 21:17:37;;;;;;;11.60;10.70;;;13.50;99.90;;;;;;4955992;29;20248;-90
2020/12/21 21:20:04;;;;;;;10.70;9.80;;;13.50;99.90;;;;;;4956140;28;20204;-90
2020/12/21 21:22:31;;;;;;;9.90;9.30;;;13.70;99.90;;;;;;4960067;29;20241;-88
2020/12/21 21:24:57;;;;;;;10.37;9.67;;;13.60;99.90;;;;;;4959719;29;20234;-88
2020/12/21 21:27:24;;;;;;;10.23;9.43;;;13.80;99.90;;;;;;4959699;29;20378;-90
2020/12/21 21:29:50;;;;;;;9.47;8.87;;;13.70;99.90;;;;;;4959513;29;20678;-89
2020/12/21 21:32:17;;;;;;;9.47;8.80;;;13.80;99.90;;;;;;4959983;29;20197;-90
2020/12/21 21:34:44;;;;;;;9.47;8.77;;;13.80;99.90;;;;;;4959259;29;20216;-89
2020/12/21 21:37:10;;;;;;;9.73;8.90;;;13.80;99.90;;;;;;4959618;29;20263;-89
2020/12/21 21:39:37;;;;;;;9.17;8.47;;;13.90;99.90;;;;;;4959667;29;20648;-90
2020/12/21 21:42:04;;;;;;;9.40;8.63;;;14.00;99.90;;;;;;4959086;29;20241;-89
2020/12/21 21:44:31;;;;;;;9.13;8.43;;;14.00;99.90;;;;;;4958868;29;20237;-89
2020/12/21 21:46:59;;;;;;;8.83;8.03;;;14.00;99.90;;;;;;4959198;29;20701;-90
2020/12/21 21:49:28;;;;;;;8.87;8.27;;;14.00;99.90;;;;;;4959368;29;20263;-89
2020/12/21 21:51:57;;;;;;;8.80;8.10;;;14.00;99.90;;;;;;4959213;28;20217;-91
2020/12/21 21:54:23;;;;;;;7.90;7.30;;;14.00;99.90;;;;;;4959441;29;20304;-88
2020/12/21 21:56:50;;;;;;;8.63;7.90;;;14.10;99.90;;;;;;4958853;29;20237;-90
2020/12/21 21:59:16;;;;;;;7.30;6.60;;;14.00;99.90;;;;;;4958710;29;20209;-90
2020/12/21 22:01:45;;;;;;;7.00;6.50;;;14.00;99.90;;;;;;4959102;29;20217;-90
2020/12/21 22:04:12;;;;;;;7.20;6.60;;;14.00;99.90;;;;;;4959362;29;20253;-90
2020/12/21 22:06:39;;;;;;;6.33;5.83;;;14.00;99.90;;;;;;4959265;29;20229;-90
2020/12/21 22:09:06;;;;;;;5.90;5.40;;;14.00;99.90;;;;;;4959311;29;20219;-90
2020/12/21 22:11:35;;;;;;;5.17;4.67;;;14.00;99.90;;;;;;4959016;29;20526;-88
2020/12/21 22:14:01;;;;;;;5.00;4.50;;;14.00;99.90;;;;;;4958412;29;20679;-87
2020/12/21 22:16:28;;;;;;;3.90;3.70;;;14.00;99.90;;;;;;4958771;29;20283;-90
2020/12/21 22:18:54;;;;;;;4.27;4.00;;;14.00;99.90;;;;;;4958765;29;20205;-90
2020/12/21 22:21:22;;;;;;;4.03;3.70;;;14.10;99.90;;;;;;4959271;29;20649;-89
2020/12/21 22:23:49;;;;;;;3.77;3.47;;;14.10;99.90;;;;;;4958383;29;20606;-89
2020/12/21 22:26:16;;;;;;;3.90;3.20;;;14.10;99.90;;;;;;4958503;29;20316;-90
2020/12/21 22:28:42;;;;;;;3.37;3.17;;;14.10;99.90;;;;;;4958320;29;20209;-87
2020/12/21 22:31:09;;;;;;;3.13;2.90;;;14.20;99.90;;;;;;4958384;29;20193;-90
2020/12/21 22:33:35;;;;;;;2.97;2.70;;;14.20;99.90;;;;;;4957843;29;20213;-89
2020/12/21 22:36:02;;;;;;;4.80;2.53;;;14.20;99.90;;;;;;4957951;29;20685;-90
2020/12/21 22:38:28;;;;;;;2.40;2.13;;;14.20;99.90;;;;;;4958246;29;20224;-90
2020/12/21 22:40:55;;;;;;;2.10;2.00;;;14.20;99.90;;;;;;4958603;29;20205;-90
2020/12/21 22:43:22;;;;;;;2.20;2.10;;;14.20;99.90;;;;;;4958026;29;20213;-90
2020/12/21 22:45:48;;;;;;;1.70;1.60;;;14.20;99.90;;;;;;4957742;29;20236;-90
2020/12/21 22:48:15;;;;;;;2.00;1.90;;;14.20;99.90;;;;;;4958479;29;20198;-89
2020/12/21 22:50:41;;;;;;;2.03;1.83;;;14.20;99.90;;;;;;4940856;29;20208;-91
2020/12/21 22:53:07;;;;;;;3.07;1.43;;;14.20;99.90;;;;;;4958430;29;20214;-90
2020/12/21 22:55:34;;;;;;;2.17;1.60;;;14.10;99.90;;;;;;4958098;29;20201;-90
2020/12/21 22:58:01;;;;;;;1.60;1.50;;;14.10;99.90;;;;;;4957908;29;20229;-90
2020/12/21 23:00:29;;;;;;;1.33;1.20;;;14.10;99.90;;;;;;4958450;29;20748;-89
2020/12/21 23:02:56;;;;;;;1.77;1.40;;;14.10;99.90;;;;;;4957918;29;20201;-89
2020/12/21 23:05:23;;;;;;;1.37;1.37;;;14.10;99.90;;;;;;4957497;29;20267;-87
2020/12/21 23:07:50;;;;;;;0.83;0.83;;;14.10;99.90;;;;;;4958505;29;20237;-88
2020/12/21 23:10:17;;;;;;;1.17;1.17;;;14.00;99.90;;;;;;4957891;29;20210;-88
2020/12/21 23:12:43;;;;;;;0.97;0.97;;;14.00;99.90;;;;;;4957256;29;20595;-87
2020/12/21 23:15:11;;;;;;;1.23;1.00;;;14.00;99.90;;;;;;4957957;29;20216;-87
2020/12/21 23:17:38;;;;;;;1.53;1.00;;;14.00;99.90;;;;;;4957490;29;20230;-88
2020/12/21 23:20:06;;;;;;;0.90;0.90;;;14.00;99.90;;;;;;4957571;29;20209;-87
2020/12/21 23:22:32;;;;;;;2.47;0.80;;;14.00;99.90;;;;;;4957656;29;20248;-88
2020/12/21 23:24:59;;;;;;;1.80;0.90;;;14.10;99.90;;;;;;4957290;29;20233;-88
2020/12/21 23:27:25;;;;;;;0.87;0.87;;;14.10;99.90;;;;;;4957413;29;20240;-90
2020/12/21 23:29:52;;;;;;;0.70;0.70;;;14.10;99.90;;;;;;4957951;29;20217;-90
2020/12/21 23:32:19;;;;;;;1.27;1.07;;;13.90;99.90;;;;;;4957259;29;20236;-90
2020/12/21 23:34:45;;;;;;;0.90;0.90;;;14.00;99.90;;;;;;4957269;29;20201;-89
2020/12/21 23:37:12;;;;;;;1.10;1.00;;;14.00;99.90;;;;;;4957344;29;20233;-89
2020/12/21 23:39:38;;;;;;;1.30;1.20;;;14.00;99.90;;;;;;4957258;29;20198;-90
2020/12/21 23:42:05;;;;;;;1.43;1.30;;;14.00;99.90;;;;;;4957535;29;20217;-90
2020/12/21 23:44:31;;;;;;;1.40;1.40;;;14.00;99.90;;;;;;4955537;28;20278;-90
2020/12/21 23:46:58;;;;;;;2.00;1.90;;;14.00;99.90;;;;;;4957472;29;20666;-90
2020/12/21 23:49:25;;;;;;;1.90;1.80;;;14.00;99.90;;;;;;4957297;29;20288;-91
2020/12/21 23:51:52;;;;;;;1.87;1.80;;;14.00;99.90;;;;;;4956903;29;20221;-88
2020/12/21 23:54:18;;;;;;;2.90;2.30;;;14.00;99.90;;;;;;4956635;29;20204;-87
2020/12/21 23:56:44;;;;;;;2.83;2.43;;;14.00;99.90;;;;;;4939601;29;20237;-87
2020/12/21 23:59:11;;;;;;;2.40;2.20;;;14.00;99.90;;;;;;4957432;29;20296;-90
